Estación Meteorológica Peña el Pijo (Robertgarden) [ 07/21/19 02:06:59 CEST ]

Fecha Hora Presion(HPa) Temp (°C) Humedad % Rocio (°C) Viento ( m/s) Direccion Lluvia 1Hora(mm) Lluvia 24H(mm) LLuvia Total(mm)
2018-Nov-26 01:01:49 998.600 10.8 79 7.3         151.77
2018-Nov-26 02:01:45 998.300 10.6 83 7.8     0.51 0.51 152.29
2018-Nov-26 03:05:26 997.400 10.6 84 8.0       0.51 152.29
2018-Nov-26 04:01:43 997.400 9.9 75 5.6       0.51 152.29
2018-Nov-26 05:01:45 998.600 8.5 68 2.9 3.7 WNW   0.51 152.29
2018-Nov-26 06:01:44 998.900 6.9 67 1.2       0.51 152.29
2018-Nov-26 07:01:57 999.900 5.9 66 0.0 2.3 NW   0.51 152.29
2018-Nov-26 08:01:46 1000.300 5.3 68 -0.1 4.0 WNW   0.51 152.29
2018-Nov-26 09:01:47 1001.100 5.3 68 -0.1       0.51 152.29
2018-Nov-26 10:01:52 1001.300 6.4 65 0.3 1.3 WNW   0.51 152.29
2018-Nov-26 11:01:55 1002.500 6.7 65 0.6       0.51 152.29
2018-Nov-26 12:01:37 1003.000 8.8 63 2.1 7.2 NNW   0.51 152.29
2018-Nov-26 13:01:51 1003.900 8.4 63 1.7       0.51 152.29
2018-Nov-26 14:01:56 1004.300 7.8 65 1.6       0.51 152.29
2018-Nov-26 15:01:48 1004.800 7.4 67 1.7       0.51 152.29
2018-Nov-26 16:01:39 1005.800 7.4 68 1.9       0.51 152.29
2018-Nov-26 17:01:52 1006.800 6.2 75 2.1     0.51 1.03 152.81
2018-Nov-26 18:01:48 1007.300 5.4 80 2.2 0.8 N 1.55 2.59 154.36
2018-Nov-26 19:01:58 1008.400 5.2 83 2.5     0.51 3.10 154.88
2018-Nov-26 20:01:55 1008.600 5.2 83 2.5       3.10 154.88
2018-Nov-26 21:01:45 1009.500 5.2 83 2.5       3.10 154.88
2018-Nov-26 22:01:50 1009.600 6.0 78 2.4       3.10 154.88
2018-Nov-26 23:01:49 1010.500 5.5 77 1.8       3.10 154.88

Temperatura Máxima:10°    Temperatura Mínima:
Presión Máxima:1010.500 Hpa    Presión Mínima:997.400 Hpa


Volver